sensor_id;sensor_type;location;lat;lon;timestamp;P1;P2;P0
72329;PMS5003;60660;52.076;5.110;2023-04-03T00:02:01;5;3;
72329;PMS5003;60660;52.076;5.110;2023-04-03T00:04:31;3;3;
72329;PMS5003;60660;52.076;5.110;2023-04-03T00:06:52;5;3;
72329;PMS5003;60660;52.076;5.110;2023-04-03T00:09:17;5;3;
72329;PMS5003;60660;52.076;5.110;2023-04-03T00:11:43;3;2;
72329;PMS5003;60660;52.076;5.110;2023-04-03T00:14:08;6;5;
72329;PMS5003;60660;52.076;5.110;2023-04-03T00:16:34;5;3;
72329;PMS5003;60660;52.076;5.110;2023-04-03T00:19:00;5;5;
72329;PMS5003;60660;52.076;5.110;2023-04-03T00:21:25;5;5;
72329;PMS5003;60660;52.076;5.110;2023-04-03T00:23:51;4;2;
72329;PMS5003;60660;52.076;5.110;2023-04-03T00:26:16;5;5;
72329;PMS5003;60660;52.076;5.110;2023-04-03T00:28:42;5;5;
72329;PMS5003;60660;52.076;5.110;2023-04-03T00:31:08;4;4;
72329;PMS5003;60660;52.076;5.110;2023-04-03T00:33:33;4;4;
72329;PMS5003;60660;52.076;5.110;2023-04-03T00:35:59;6;5;
72329;PMS5003;60660;52.076;5.110;2023-04-03T00:38:24;4;4;
72329;PMS5003;60660;52.076;5.110;2023-04-03T00:40:50;5;5;
72329;PMS5003;60660;52.076;5.110;2023-04-03T00:43:16;6;5;
72329;PMS5003;60660;52.076;5.110;2023-04-03T00:45:42;2;2;
72329;PMS5003;60660;52.076;5.110;2023-04-03T00:48:08;6;4;
72329;PMS5003;60660;52.076;5.110;2023-04-03T00:50:34;5;5;
72329;PMS5003;60660;52.076;5.110;2023-04-03T00:52:58;5;5;
72329;PMS5003;60660;52.076;5.110;2023-04-03T00:55:24;2;2;
72329;PMS5003;60660;52.076;5.110;2023-04-03T00:57:49;6;5;
72329;PMS5003;60660;52.076;5.110;2023-04-03T01:00:16;5;5;
72329;PMS5003;60660;52.076;5.110;2023-04-03T01:02:41;6;2;
72329;PMS5003;60660;52.076;5.110;2023-04-03T01:05:06;5;5;
72329;PMS5003;60660;52.076;5.110;2023-04-03T01:07:32;4;4;
72329;PMS5003;60660;52.076;5.110;2023-04-03T01:09:58;6;4;
72329;PMS5003;60660;52.076;5.110;2023-04-03T01:12:24;6;5;
72329;PMS5003;60660;52.076;5.110;2023-04-03T01:14:50;8;4;
72329;PMS5003;60660;52.076;5.110;2023-04-03T01:17:26;4;4;
72329;PMS5003;60660;52.076;5.110;2023-04-03T01:19:40;4;4;
72329;PMS5003;60660;52.076;5.110;2023-04-03T01:22:10;5;5;
72329;PMS5003;60660;52.076;5.110;2023-04-03T01:24:32;5;5;
72329;PMS5003;60660;52.076;5.110;2023-04-03T01:26:57;6;5;
72329;PMS5003;60660;52.076;5.110;2023-04-03T01:29:22;1;1;
72329;PMS5003;60660;52.076;5.110;2023-04-03T01:31:49;6;4;
72329;PMS5003;60660;52.076;5.110;2023-04-03T01:34:14;5;5;
72329;PMS5003;60660;52.076;5.110;2023-04-03T01:36:39;5;4;
72329;PMS5003;60660;52.076;5.110;2023-04-03T01:39:05;5;5;
72329;PMS5003;60660;52.076;5.110;2023-04-03T01:41:31;8;6;
72329;PMS5003;60660;52.076;5.110;2023-04-03T01:43:56;4;4;
72329;PMS5003;60660;52.076;5.110;2023-04-03T01:46:22;4;4;
72329;PMS5003;60660;52.076;5.110;2023-04-03T01:48:47;4;4;
72329;PMS5003;60660;52.076;5.110;2023-04-03T01:51:13;5;5;
72329;PMS5003;60660;52.076;5.110;2023-04-03T01:53:39;5;5;
72329;PMS5003;60660;52.076;5.110;2023-04-03T01:56:05;4;4;
72329;PMS5003;60660;52.076;5.110;2023-04-03T01:58:30;4;4;
72329;PMS5003;60660;52.076;5.110;2023-04-03T02:00:56;5;4;
72329;PMS5003;60660;52.076;5.110;2023-04-03T02:03:21;5;5;
72329;PMS5003;60660;52.076;5.110;2023-04-03T02:05:47;5;5;
72329;PMS5003;60660;52.076;5.110;2023-04-03T02:08:13;4;4;
72329;PMS5003;60660;52.076;5.110;2023-04-03T02:10:38;5;5;
72329;PMS5003;60660;52.076;5.110;2023-04-03T02:13:04;5;4;
72329;PMS5003;60660;52.076;5.110;2023-04-03T02:15:30;6;5;
72329;PMS5003;60660;52.076;5.110;2023-04-03T02:17:55;5;5;
72329;PMS5003;60660;52.076;5.110;2023-04-03T02:20:21;5;5;
72329;PMS5003;60660;52.076;5.110;2023-04-03T02:22:46;5;5;
72329;PMS5003;60660;52.076;5.110;2023-04-03T02:25:12;4;4;
72329;PMS5003;60660;52.076;5.110;2023-04-03T02:27:38;5;5;
72329;PMS5003;60660;52.076;5.110;2023-04-03T02:30:04;6;4;
72329;PMS5003;60660;52.076;5.110;2023-04-03T02:32:29;4;4;
72329;PMS5003;60660;52.076;5.110;2023-04-03T02:34:55;5;4;
72329;PMS5003;60660;52.076;5.110;2023-04-03T02:37:21;4;4;
72329;PMS5003;60660;52.076;5.110;2023-04-03T02:39:46;8;6;
72329;PMS5003;60660;52.076;5.110;2023-04-03T02:42:12;5;4;
72329;PMS5003;60660;52.076;5.110;2023-04-03T02:44:37;6;6;
72329;PMS5003;60660;52.076;5.110;2023-04-03T02:47:03;8;5;
72329;PMS5003;60660;52.076;5.110;2023-04-03T02:49:29;5;4;
72329;PMS5003;60660;52.076;5.110;2023-04-03T02:51:54;4;4;
72329;PMS5003;60660;52.076;5.110;2023-04-03T02:54:20;6;5;
72329;PMS5003;60660;52.076;5.110;2023-04-03T02:56:46;4;4;
72329;PMS5003;60660;52.076;5.110;2023-04-03T02:59:11;5;5;
72329;PMS5003;60660;52.076;5.110;2023-04-03T03:01:37;6;5;
72329;PMS5003;60660;52.076;5.110;2023-04-03T03:04:03;4;4;
72329;PMS5003;60660;52.076;5.110;2023-04-03T03:06:28;5;5;
72329;PMS5003;60660;52.076;5.110;2023-04-03T03:08:54;9;8;
72329;PMS5003;60660;52.076;5.110;2023-04-03T03:11:20;6;6;
72329;PMS5003;60660;52.076;5.110;2023-04-03T03:13:45;6;5;
72329;PMS5003;60660;52.076;5.110;2023-04-03T03:16:11;5;5;
72329;PMS5003;60660;52.076;5.110;2023-04-03T03:18:37;8;8;
72329;PMS5003;60660;52.076;5.110;2023-04-03T03:21:02;9;9;
72329;PMS5003;60660;52.076;5.110;2023-04-03T03:23:29;9;8;
72329;PMS5003;60660;52.076;5.110;2023-04-03T03:25:54;9;8;
72329;PMS5003;60660;52.076;5.110;2023-04-03T03:28:19;8;8;
72329;PMS5003;60660;52.076;5.110;2023-04-03T03:30:45;6;6;
72329;PMS5003;60660;52.076;5.110;2023-04-03T03:33:10;5;5;
72329;PMS5003;60660;52.076;5.110;2023-04-03T03:35:36;6;5;
72329;PMS5003;60660;52.076;5.110;2023-04-03T03:38:02;6;5;
72329;PMS5003;60660;52.076;5.110;2023-04-03T03:40:27;8;6;
72329;PMS5003;60660;52.076;5.110;2023-04-03T03:42:53;6;5;
72329;PMS5003;60660;52.076;5.110;2023-04-03T03:45:19;6;6;
72329;PMS5003;60660;52.076;5.110;2023-04-03T03:47:44;8;6;
72329;PMS5003;60660;52.076;5.110;2023-04-03T03:50:10;6;6;
72329;PMS5003;60660;52.076;5.110;2023-04-03T03:52:36;6;5;
72329;PMS5003;60660;52.076;5.110;2023-04-03T03:55:02;6;5;
72329;PMS5003;60660;52.076;5.110;2023-04-03T03:57:27;6;6;
72329;PMS5003;60660;52.076;5.110;2023-04-03T03:59:53;8;8;
72329;PMS5003;60660;52.076;5.110;2023-04-03T04:02:18;8;6;
72329;PMS5003;60660;52.076;5.110;2023-04-03T04:04:44;6;6;
72329;PMS5003;60660;52.076;5.110;2023-04-03T04:07:10;8;6;
72329;PMS5003;60660;52.076;5.110;2023-04-03T04:09:35;6;6;
72329;PMS5003;60660;52.076;5.110;2023-04-03T04:12:01;6;6;
72329;PMS5003;60660;52.076;5.110;2023-04-03T04:14:27;9;9;
72329;PMS5003;60660;52.076;5.110;2023-04-03T04:16:53;8;8;
72329;PMS5003;60660;52.076;5.110;2023-04-03T04:19:18;9;9;
72329;PMS5003;60660;52.076;5.110;2023-04-03T04:21:44;6;6;
72329;PMS5003;60660;52.076;5.110;2023-04-03T04:24:10;9;9;
72329;PMS5003;60660;52.076;5.110;2023-04-03T04:26:35;9;6;
72329;PMS5003;60660;52.076;5.110;2023-04-03T04:29:01;8;6;
72329;PMS5003;60660;52.076;5.110;2023-04-03T04:31:27;9;8;
72329;PMS5003;60660;52.076;5.110;2023-04-03T04:33:52;11;11;
72329;PMS5003;60660;52.076;5.110;2023-04-03T04:36:18;8;8;
72329;PMS5003;60660;52.076;5.110;2023-04-03T04:38:44;8;8;
72329;PMS5003;60660;52.076;5.110;2023-04-03T04:41:10;7;7;
72329;PMS5003;60660;52.076;5.110;2023-04-03T04:43:35;8;8;
72329;PMS5003;60660;52.076;5.110;2023-04-03T04:46:02;11;9;
72329;PMS5003;60660;52.076;5.110;2023-04-03T04:48:32;8;7;
72329;PMS5003;60660;52.076;5.110;2023-04-03T04:50:52;11;8;
72329;PMS5003;60660;52.076;5.110;2023-04-03T04:53:18;11;9;
72329;PMS5003;60660;52.076;5.110;2023-04-03T04:55:44;11;8;
72329;PMS5003;60660;52.076;5.110;2023-04-03T04:58:09;8;8;
72329;PMS5003;60660;52.076;5.110;2023-04-03T05:00:35;12;9;
72329;PMS5003;60660;52.076;5.110;2023-04-03T05:03:01;12;11;
72329;PMS5003;60660;52.076;5.110;2023-04-03T05:05:27;8;8;
72329;PMS5003;60660;52.076;5.110;2023-04-03T05:07:52;8;8;
72329;PMS5003;60660;52.076;5.110;2023-04-03T05:10:18;9;8;
72329;PMS5003;60660;52.076;5.110;2023-04-03T05:12:44;6;6;
72329;PMS5003;60660;52.076;5.110;2023-04-03T05:15:10;18;11;
72329;PMS5003;60660;52.076;5.110;2023-04-03T05:17:35;11;11;
72329;PMS5003;60660;52.076;5.110;2023-04-03T05:20:01;8;8;
72329;PMS5003;60660;52.076;5.110;2023-04-03T05:22:31;8;8;
72329;PMS5003;60660;52.076;5.110;2023-04-03T05:24:52;11;9;
72329;PMS5003;60660;52.076;5.110;2023-04-03T05:27:17;12;12;
72329;PMS5003;60660;52.076;5.110;2023-04-03T05:29:43;11;9;
72329;PMS5003;60660;52.076;5.110;2023-04-03T05:32:09;9;9;
72329;PMS5003;60660;52.076;5.110;2023-04-03T05:34:35;11;9;
72329;PMS5003;60660;52.076;5.110;2023-04-03T05:37:01;9;9;
72329;PMS5003;60660;52.076;5.110;2023-04-03T05:39:26;11;11;
72329;PMS5003;60660;52.076;5.110;2023-04-03T05:41:52;11;9;
72329;PMS5003;60660;52.076;5.110;2023-04-03T05:44:17;9;9;
72329;PMS5003;60660;52.076;5.110;2023-04-03T05:46:43;8;8;
72329;PMS5003;60660;52.076;5.110;2023-04-03T05:49:09;8;8;
72329;PMS5003;60660;52.076;5.110;2023-04-03T05:51:35;11;9;
72329;PMS5003;60660;52.076;5.110;2023-04-03T05:54:05;13;12;
72329;PMS5003;60660;52.076;5.110;2023-04-03T05:56:26;9;9;
72329;PMS5003;60660;52.076;5.110;2023-04-03T05:58:51;11;9;
72329;PMS5003;60660;52.076;5.110;2023-04-03T06:01:17;8;8;
72329;PMS5003;60660;52.076;5.110;2023-04-03T06:03:43;13;12;
72329;PMS5003;60660;52.076;5.110;2023-04-03T06:06:10;11;9;
72329;PMS5003;60660;52.076;5.110;2023-04-03T06:08:34;8;8;
72329;PMS5003;60660;52.076;5.110;2023-04-03T06:11:00;11;9;
72329;PMS5003;60660;52.076;5.110;2023-04-03T06:13:25;11;11;
72329;PMS5003;60660;52.076;5.110;2023-04-03T06:15:51;11;11;
72329;PMS5003;60660;52.076;5.110;2023-04-03T06:18:17;9;8;
72329;PMS5003;60660;52.076;5.110;2023-04-03T06:20:42;8;8;
72329;PMS5003;60660;52.076;5.110;2023-04-03T06:23:08;8;8;
72329;PMS5003;60660;52.076;5.110;2023-04-03T06:25:34;9;8;
72329;PMS5003;60660;52.076;5.110;2023-04-03T06:28:00;8;8;
72329;PMS5003;60660;52.076;5.110;2023-04-03T06:30:25;6;6;
72329;PMS5003;60660;52.076;5.110;2023-04-03T06:32:51;9;9;
72329;PMS5003;60660;52.076;5.110;2023-04-03T06:35:16;6;6;
72329;PMS5003;60660;52.076;5.110;2023-04-03T06:37:42;8;8;
72329;PMS5003;60660;52.076;5.110;2023-04-03T06:40:09;5;5;
72329;PMS5003;60660;52.076;5.110;2023-04-03T06:42:33;6;6;
72329;PMS5003;60660;52.076;5.110;2023-04-03T06:44:59;7;7;
72329;PMS5003;60660;52.076;5.110;2023-04-03T06:47:24;7;6;
72329;PMS5003;60660;52.076;5.110;2023-04-03T06:49:50;5;5;
72329;PMS5003;60660;52.076;5.110;2023-04-03T06:52:16;6;6;
72329;PMS5003;60660;52.076;5.110;2023-04-03T06:54:41;6;6;
72329;PMS5003;60660;52.076;5.110;2023-04-03T06:57:07;7;7;
72329;PMS5003;60660;52.076;5.110;2023-04-03T06:59:32;6;6;
72329;PMS5003;60660;52.076;5.110;2023-04-03T07:01:58;9;7;
72329;PMS5003;60660;52.076;5.110;2023-04-03T07:04:23;7;7;
72329;PMS5003;60660;52.076;5.110;2023-04-03T07:06:49;6;5;
72329;PMS5003;60660;52.076;5.110;2023-04-03T07:09:15;7;7;
72329;PMS5003;60660;52.076;5.110;2023-04-03T07:11:40;5;5;
72329;PMS5003;60660;52.076;5.110;2023-04-03T07:14:05;6;6;
72329;PMS5003;60660;52.076;5.110;2023-04-03T07:16:31;5;5;
72329;PMS5003;60660;52.076;5.110;2023-04-03T07:18:56;5;5;
72329;PMS5003;60660;52.076;5.110;2023-04-03T07:21:22;7;7;
72329;PMS5003;60660;52.076;5.110;2023-04-03T07:23:47;6;6;
72329;PMS5003;60660;52.076;5.110;2023-04-03T07:26:13;8;6;
72329;PMS5003;60660;52.076;5.110;2023-04-03T07:28:38;6;6;
72329;PMS5003;60660;52.076;5.110;2023-04-03T07:31:04;7;7;
72329;PMS5003;60660;52.076;5.110;2023-04-03T07:33:29;6;6;
72329;PMS5003;60660;52.076;5.110;2023-04-03T07:35:54;5;5;
72329;PMS5003;60660;52.076;5.110;2023-04-03T07:38:20;5;5;
72329;PMS5003;60660;52.076;5.110;2023-04-03T07:40:46;5;5;
72329;PMS5003;60660;52.076;5.110;2023-04-03T07:43:11;8;7;
72329;PMS5003;60660;52.076;5.110;2023-04-03T07:45:36;6;5;
72329;PMS5003;60660;52.076;5.110;2023-04-03T07:48:02;5;5;
72329;PMS5003;60660;52.076;5.110;2023-04-03T07:50:27;6;6;
72329;PMS5003;60660;52.076;5.110;2023-04-03T07:52:53;6;5;
72329;PMS5003;60660;52.076;5.110;2023-04-03T07:55:18;7;6;
72329;PMS5003;60660;52.076;5.110;2023-04-03T07:57:44;6;6;
72329;PMS5003;60660;52.076;5.110;2023-04-03T08:00:10;7;7;
72329;PMS5003;60660;52.076;5.110;2023-04-03T08:02:35;3;3;
72329;PMS5003;60660;52.076;5.110;2023-04-03T08:05:01;5;5;
72329;PMS5003;60660;52.076;5.110;2023-04-03T08:07:26;5;5;
72329;PMS5003;60660;52.076;5.110;2023-04-03T08:09:51;5;5;
72329;PMS5003;60660;52.076;5.110;2023-04-03T08:12:17;3;3;
72329;PMS5003;60660;52.076;5.110;2023-04-03T08:14:43;3;3;
72329;PMS5003;60660;52.076;5.110;2023-04-03T08:17:08;5;3;
72329;PMS5003;60660;52.076;5.110;2023-04-03T08:19:33;5;3;
72329;PMS5003;60660;52.076;5.110;2023-04-03T08:22:00;7;7;
72329;PMS5003;60660;52.076;5.110;2023-04-03T08:24:25;3;3;
72329;PMS5003;60660;52.076;5.110;2023-04-03T08:26:51;4;4;
72329;PMS5003;60660;52.076;5.110;2023-04-03T08:29:16;4;4;
72329;PMS5003;60660;52.076;5.110;2023-04-03T08:31:41;3;3;
72329;PMS5003;60660;52.076;5.110;2023-04-03T08:34:07;3;3;
72329;PMS5003;60660;52.076;5.110;2023-04-03T08:36:32;6;6;
72329;PMS5003;60660;52.076;5.110;2023-04-03T08:38:58;6;4;
72329;PMS5003;60660;52.076;5.110;2023-04-03T08:41:26;3;3;
72329;PMS5003;60660;52.076;5.110;2023-04-03T08:43:58;3;3;
72329;PMS5003;60660;52.076;5.110;2023-04-03T08:46:14;3;2;
72329;PMS5003;60660;52.076;5.110;2023-04-03T08:48:40;4;4;
72329;PMS5003;60660;52.076;5.110;2023-04-03T08:51:08;7;6;
72329;PMS5003;60660;52.076;5.110;2023-04-03T08:53:32;3;3;
72329;PMS5003;60660;52.076;5.110;2023-04-03T08:55:56;3;3;
72329;PMS5003;60660;52.076;5.110;2023-04-03T08:58:22;3;2;
72329;PMS5003;60660;52.076;5.110;2023-04-03T09:00:48;2;2;
72329;PMS5003;60660;52.076;5.110;2023-04-03T09:03:13;1;1;
72329;PMS5003;60660;52.076;5.110;2023-04-03T09:05:39;2;2;
72329;PMS5003;60660;52.076;5.110;2023-04-03T09:08:04;3;3;
72329;PMS5003;60660;52.076;5.110;2023-04-03T09:10:29;2;1;
72329;PMS5003;60660;52.076;5.110;2023-04-03T09:12:57;3;3;
72329;PMS5003;60660;52.076;5.110;2023-04-03T09:15:20;3;2;
72329;PMS5003;60660;52.076;5.110;2023-04-03T09:17:48;3;3;
72329;PMS5003;60660;52.076;5.110;2023-04-03T09:20:14;2;2;
72329;PMS5003;60660;52.076;5.110;2023-04-03T09:22:37;2;2;
72329;PMS5003;60660;52.076;5.110;2023-04-03T09:25:04;2;2;
72329;PMS5003;60660;52.076;5.110;2023-04-03T09:27:27;2;2;
72329;PMS5003;60660;52.076;5.110;2023-04-03T09:29:53;2;2;
72329;PMS5003;60660;52.076;5.110;2023-04-03T09:32:19;3;3;
72329;PMS5003;60660;52.076;5.110;2023-04-03T09:34:43;2;2;
72329;PMS5003;60660;52.076;5.110;2023-04-03T09:37:09;1;1;
72329;PMS5003;60660;52.076;5.110;2023-04-03T09:39:48;2;2;
72329;PMS5003;60660;52.076;5.110;2023-04-03T09:42:01;1;1;
72329;PMS5003;60660;52.076;5.110;2023-04-03T09:44:26;3;2;
72329;PMS5003;60660;52.076;5.110;2023-04-03T09:46:51;0;0;
72329;PMS5003;60660;52.076;5.110;2023-04-03T09:49:17;1;1;
72329;PMS5003;60660;52.076;5.110;2023-04-03T09:51:42;1;1;
72329;PMS5003;60660;52.076;5.110;2023-04-03T09:54:39;1;1;
72329;PMS5003;60660;52.076;5.110;2023-04-03T09:56:32;0;0;
72329;PMS5003;60660;52.076;5.110;2023-04-03T09:59:06;2;2;
72329;PMS5003;60660;52.076;5.110;2023-04-03T10:01:26;1;1;
72329;PMS5003;60660;52.076;5.110;2023-04-03T10:04:01;1;1;
72329;PMS5003;60660;52.076;5.110;2023-04-03T10:06:21;1;1;
72329;PMS5003;60660;52.076;5.110;2023-04-03T10:06:33;1;1;
72329;PMS5003;60660;52.076;5.110;2023-04-03T10:08:59;1;1;
72329;PMS5003;60660;52.076;5.110;2023-04-03T10:11:24;1;1;
72329;PMS5003;60660;52.076;5.110;2023-04-03T10:13:50;1;1;
72329;PMS5003;60660;52.076;5.110;2023-04-03T10:16:14;1;1;
72329;PMS5003;60660;52.076;5.110;2023-04-03T10:18:41;1;1;
72329;PMS5003;60660;52.076;5.110;2023-04-03T10:21:06;0;0;
72329;PMS5003;60660;52.076;5.110;2023-04-03T10:23:31;1;1;
72329;PMS5003;60660;52.076;5.110;2023-04-03T10:25:59;1;1;
72329;PMS5003;60660;52.076;5.110;2023-04-03T10:28:22;1;1;
72329;PMS5003;60660;52.076;5.110;2023-04-03T10:30:48;1;1;
72329;PMS5003;60660;52.076;5.110;2023-04-03T10:33:17;1;1;
72329;PMS5003;60660;52.076;5.110;2023-04-03T10:35:41;1;1;
72329;PMS5003;60660;52.076;5.110;2023-04-03T10:38:04;0;0;
72329;PMS5003;60660;52.076;5.110;2023-04-03T10:40:29;0;0;
72329;PMS5003;60660;52.076;5.110;2023-04-03T10:42:55;0;0;
72329;PMS5003;60660;52.076;5.110;2023-04-03T10:45:20;0;0;
72329;PMS5003;60660;52.076;5.110;2023-04-03T10:47:45;0;0;
72329;PMS5003;60660;52.076;5.110;2023-04-03T10:50:15;0;0;
72329;PMS5003;60660;52.076;5.110;2023-04-03T10:52:36;0;0;
72329;PMS5003;60660;52.076;5.110;2023-04-03T10:55:02;0;0;
72329;PMS5003;60660;52.076;5.110;2023-04-03T10:57:25;1;1;
72329;PMS5003;60660;52.076;5.110;2023-04-03T10:59:51;1;1;
72329;PMS5003;60660;52.076;5.110;2023-04-03T11:02:17;0;0;
72329;PMS5003;60660;52.076;5.110;2023-04-03T11:04:41;0;0;
72329;PMS5003;60660;52.076;5.110;2023-04-03T11:07:08;1;1;
72329;PMS5003;60660;52.076;5.110;2023-04-03T11:09:32;0;0;
72329;PMS5003;60660;52.076;5.110;2023-04-03T11:11:58;0;0;
72329;PMS5003;60660;52.076;5.110;2023-04-03T11:14:24;1;1;
72329;PMS5003;60660;52.076;5.110;2023-04-03T11:16:48;0;0;
72329;PMS5003;60660;52.076;5.110;2023-04-03T11:19:14;0;0;
72329;PMS5003;60660;52.076;5.110;2023-04-03T11:21:39;0;0;
72329;PMS5003;60660;52.076;5.110;2023-04-03T11:24:11;1;0;
72329;PMS5003;60660;52.076;5.110;2023-04-03T11:26:29;1;1;
72329;PMS5003;60660;52.076;5.110;2023-04-03T11:28:55;0;0;
72329;PMS5003;60660;52.076;5.110;2023-04-03T11:31:24;1;1;
72329;PMS5003;60660;52.076;5.110;2023-04-03T11:33:45;0;0;
72329;PMS5003;60660;52.076;5.110;2023-04-03T11:36:10;0;0;
72329;PMS5003;60660;52.076;5.110;2023-04-03T11:38:35;1;1;
72329;PMS5003;60660;52.076;5.110;2023-04-03T11:41:00;1;1;
72329;PMS5003;60660;52.076;5.110;2023-04-03T11:43:26;0;0;
72329;PMS5003;60660;52.076;5.110;2023-04-03T11:45:50;1;1;
72329;PMS5003;60660;52.076;5.110;2023-04-03T11:48:42;0;0;
72329;PMS5003;60660;52.076;5.110;2023-04-03T11:50:42;2;1;
72329;PMS5003;60660;52.076;5.110;2023-04-03T11:53:38;1;1;
72329;PMS5003;60660;52.076;5.110;2023-04-03T11:56:04;1;1;
72329;PMS5003;60660;52.076;5.110;2023-04-03T11:58:10;1;1;
72329;PMS5003;60660;52.076;5.110;2023-04-03T12:02:35;1;1;
72329;PMS5003;60660;52.076;5.110;2023-04-03T12:05:29;1;1;
72329;PMS5003;60660;52.076;5.110;2023-04-03T12:07:24;1;1;
72329;PMS5003;60660;52.076;5.110;2023-04-03T12:09:54;1;1;
72329;PMS5003;60660;52.076;5.110;2023-04-03T12:13:19;1;1;
72329;PMS5003;60660;52.076;5.110;2023-04-03T12:14:39;1;1;
72329;PMS5003;60660;52.076;5.110;2023-04-03T12:17:12;3;2;
72329;PMS5003;60660;52.076;5.110;2023-04-03T12:19:31;1;1;
72329;PMS5003;60660;52.076;5.110;2023-04-03T12:22:12;1;1;
72329;PMS5003;60660;52.076;5.110;2023-04-03T12:24:24;1;1;
72329;PMS5003;60660;52.076;5.110;2023-04-03T12:26:46;1;0;
72329;PMS5003;60660;52.076;5.110;2023-04-03T12:29:14;2;1;
72329;PMS5003;60660;52.076;5.110;2023-04-03T12:31:41;1;1;
72329;PMS5003;60660;52.076;5.110;2023-04-03T12:34:05;1;1;
72329;PMS5003;60660;52.076;5.110;2023-04-03T12:36:28;1;1;
72329;PMS5003;60660;52.076;5.110;2023-04-03T12:38:56;2;2;
72329;PMS5003;60660;52.076;5.110;2023-04-03T12:41:18;1;1;
72329;PMS5003;60660;52.076;5.110;2023-04-03T12:43:44;2;2;
72329;PMS5003;60660;52.076;5.110;2023-04-03T12:46:11;1;1;
72329;PMS5003;60660;52.076;5.110;2023-04-03T12:48:36;1;1;
72329;PMS5003;60660;52.076;5.110;2023-04-03T12:50:59;2;2;
72329;PMS5003;60660;52.076;5.110;2023-04-03T12:53:24;2;2;
72329;PMS5003;60660;52.076;5.110;2023-04-03T12:55:52;1;1;
72329;PMS5003;60660;52.076;5.110;2023-04-03T12:58:14;3;1;
72329;PMS5003;60660;52.076;5.110;2023-04-03T13:00:39;2;2;
72329;PMS5003;60660;52.076;5.110;2023-04-03T13:03:04;1;1;
72329;PMS5003;60660;52.076;5.110;2023-04-03T13:05:29;2;1;
72329;PMS5003;60660;52.076;5.110;2023-04-03T13:07:56;1;1;
72329;PMS5003;60660;52.076;5.110;2023-04-03T13:10:19;2;2;
72329;PMS5003;60660;52.076;5.110;2023-04-03T13:12:45;1;1;
72329;PMS5003;60660;52.076;5.110;2023-04-03T13:15:12;1;1;
72329;PMS5003;60660;52.076;5.110;2023-04-03T13:17:38;1;1;
72329;PMS5003;60660;52.076;5.110;2023-04-03T13:20:09;2;2;
72329;PMS5003;60660;52.076;5.110;2023-04-03T13:22:27;1;1;
72329;PMS5003;60660;52.076;5.110;2023-04-03T13:24:50;1;1;
72329;PMS5003;60660;52.076;5.110;2023-04-03T13:27:15;2;2;
72329;PMS5003;60660;52.076;5.110;2023-04-03T13:29:40;1;1;
72329;PMS5003;60660;52.076;5.110;2023-04-03T13:32:05;3;2;
72329;PMS5003;60660;52.076;5.110;2023-04-03T13:34:35;2;2;
72329;PMS5003;60660;52.076;5.110;2023-04-03T13:36:56;2;2;
72329;PMS5003;60660;52.076;5.110;2023-04-03T13:39:22;1;1;
72329;PMS5003;60660;52.076;5.110;2023-04-03T13:41:47;2;2;
72329;PMS5003;60660;52.076;5.110;2023-04-03T13:44:16;2;1;
72329;PMS5003;60660;52.076;5.110;2023-04-03T13:46:36;2;2;
72329;PMS5003;60660;52.076;5.110;2023-04-03T13:49:09;3;2;
72329;PMS5003;60660;52.076;5.110;2023-04-03T13:51:27;2;2;
72329;PMS5003;60660;52.076;5.110;2023-04-03T13:53:54;1;1;
72329;PMS5003;60660;52.076;5.110;2023-04-03T13:56:18;2;2;
72329;PMS5003;60660;52.076;5.110;2023-04-03T13:58:51;4;3;
72329;PMS5003;60660;52.076;5.110;2023-04-03T14:01:09;1;1;
72329;PMS5003;60660;52.076;5.110;2023-04-03T14:03:37;3;3;
72329;PMS5003;60660;52.076;5.110;2023-04-03T14:05:58;2;2;
72329;PMS5003;60660;52.076;5.110;2023-04-03T14:08:24;2;2;
72329;PMS5003;60660;52.076;5.110;2023-04-03T14:10:48;3;2;
72329;PMS5003;60660;52.076;5.110;2023-04-03T14:13:13;3;2;
72329;PMS5003;60660;52.076;5.110;2023-04-03T14:15:38;3;3;
72329;PMS5003;60660;52.076;5.110;2023-04-03T14:18:03;2;2;
72329;PMS5003;60660;52.076;5.110;2023-04-03T14:20:28;2;2;
72329;PMS5003;60660;52.076;5.110;2023-04-03T14:22:54;2;2;
72329;PMS5003;60660;52.076;5.110;2023-04-03T14:25:19;2;2;
72329;PMS5003;60660;52.076;5.110;2023-04-03T14:27:45;3;3;
72329;PMS5003;60660;52.076;5.110;2023-04-03T14:30:12;4;3;
72329;PMS5003;60660;52.076;5.110;2023-04-03T14:32:35;2;2;
72329;PMS5003;60660;52.076;5.110;2023-04-03T14:35:01;2;2;
72329;PMS5003;60660;52.076;5.110;2023-04-03T14:37:26;1;1;
72329;PMS5003;60660;52.076;5.110;2023-04-03T14:39:50;2;2;
72329;PMS5003;60660;52.076;5.110;2023-04-03T14:42:16;2;2;
72329;PMS5003;60660;52.076;5.110;2023-04-03T14:44:40;2;2;
72329;PMS5003;60660;52.076;5.110;2023-04-03T14:47:08;2;2;
72329;PMS5003;60660;52.076;5.110;2023-04-03T14:49:31;3;3;
72329;PMS5003;60660;52.076;5.110;2023-04-03T14:51:56;2;2;
72329;PMS5003;60660;52.076;5.110;2023-04-03T14:54:22;2;2;
72329;PMS5003;60660;52.076;5.110;2023-04-03T14:56:46;3;3;
72329;PMS5003;60660;52.076;5.110;2023-04-03T14:59:16;3;3;
72329;PMS5003;60660;52.076;5.110;2023-04-03T15:01:37;2;2;
72329;PMS5003;60660;52.076;5.110;2023-04-03T15:04:04;4;4;
72329;PMS5003;60660;52.076;5.110;2023-04-03T15:06:27;6;4;
72329;PMS5003;60660;52.076;5.110;2023-04-03T15:08:52;2;2;
72329;PMS5003;60660;52.076;5.110;2023-04-03T15:11:17;2;2;
72329;PMS5003;60660;52.076;5.110;2023-04-03T15:13:53;2;2;
72329;PMS5003;60660;52.076;5.110;2023-04-03T15:16:18;3;3;
72329;PMS5003;60660;52.076;5.110;2023-04-03T15:18:44;3;3;
72329;PMS5003;60660;52.076;5.110;2023-04-03T15:21:09;3;3;
72329;PMS5003;60660;52.076;5.110;2023-04-03T15:23:44;4;3;
72329;PMS5003;60660;52.076;5.110;2023-04-03T15:26:11;2;2;
72329;PMS5003;60660;52.076;5.110;2023-04-03T15:28:37;3;3;
72329;PMS5003;60660;52.076;5.110;2023-04-03T15:31:02;2;2;
72329;PMS5003;60660;52.076;5.110;2023-04-03T15:33:27;3;2;
72329;PMS5003;60660;52.076;5.110;2023-04-03T15:35:52;2;2;
72329;PMS5003;60660;52.076;5.110;2023-04-03T15:38:17;2;2;
72329;PMS5003;60660;52.076;5.110;2023-04-03T15:40:48;3;3;
72329;PMS5003;60660;52.076;5.110;2023-04-03T15:43:08;2;2;
72329;PMS5003;60660;52.076;5.110;2023-04-03T15:45:33;4;3;
72329;PMS5003;60660;52.076;5.110;2023-04-03T15:47:58;4;4;
72329;PMS5003;60660;52.076;5.110;2023-04-03T15:50:23;2;2;
72329;PMS5003;60660;52.076;5.110;2023-04-03T15:52:48;4;4;
72329;PMS5003;60660;52.076;5.110;2023-04-03T15:55:14;4;4;
72329;PMS5003;60660;52.076;5.110;2023-04-03T15:57:39;4;4;
72329;PMS5003;60660;52.076;5.110;2023-04-03T16:00:05;6;4;
72329;PMS5003;60660;52.076;5.110;2023-04-03T16:02:30;2;2;
72329;PMS5003;60660;52.076;5.110;2023-04-03T16:04:55;4;3;
72329;PMS5003;60660;52.076;5.110;2023-04-03T16:07:22;9;7;
72329;PMS5003;60660;52.076;5.110;2023-04-03T16:09:45;5;4;
72329;PMS5003;60660;52.076;5.110;2023-04-03T16:12:11;3;3;
72329;PMS5003;60660;52.076;5.110;2023-04-03T16:14:36;2;2;
72329;PMS5003;60660;52.076;5.110;2023-04-03T16:17:02;3;2;
72329;PMS5003;60660;52.076;5.110;2023-04-03T16:19:27;3;3;
72329;PMS5003;60660;52.076;5.110;2023-04-03T16:21:53;3;2;
72329;PMS5003;60660;52.076;5.110;2023-04-03T16:24:17;3;3;
72329;PMS5003;60660;52.076;5.110;2023-04-03T16:26:43;2;2;
72329;PMS5003;60660;52.076;5.110;2023-04-03T16:29:08;4;3;
72329;PMS5003;60660;52.076;5.110;2023-04-03T16:31:33;4;4;
72329;PMS5003;60660;52.076;5.110;2023-04-03T16:33:59;4;3;
72329;PMS5003;60660;52.076;5.110;2023-04-03T16:36:24;3;3;
72329;PMS5003;60660;52.076;5.110;2023-04-03T16:38:49;3;3;